sensor_id;sensor_type;location;lat;lon;timestamp;P1;durP1;ratioP1;P2;durP2;ratioP2
59336;SDS011;45115;52.002;4.686;2023-08-31T00:01:16;6.65;;;3.17;;
59336;SDS011;45115;52.002;4.686;2023-08-31T00:03:43;5.40;;;2.83;;
59336;SDS011;45115;52.002;4.686;2023-08-31T00:06:10;5.65;;;3.15;;
59336;SDS011;45115;52.002;4.686;2023-08-31T00:08:37;9.65;;;3.50;;
59336;SDS011;45115;52.002;4.686;2023-08-31T00:11:04;4.82;;;3.00;;
59336;SDS011;45115;52.002;4.686;2023-08-31T00:13:32;5.88;;;2.90;;
59336;SDS011;45115;52.002;4.686;2023-08-31T00:15:58;6.50;;;3.15;;
59336;SDS011;45115;52.002;4.686;2023-08-31T00:18:25;9.60;;;3.35;;
59336;SDS011;45115;52.002;4.686;2023-08-31T00:20:52;8.85;;;3.08;;
59336;SDS011;45115;52.002;4.686;2023-08-31T00:23:19;5.70;;;3.03;;
59336;SDS011;45115;52.002;4.686;2023-08-31T00:25:46;5.65;;;2.92;;
59336;SDS011;45115;52.002;4.686;2023-08-31T00:28:14;8.50;;;3.22;;
59336;SDS011;45115;52.002;4.686;2023-08-31T00:30:46;7.90;;;3.50;;
59336;SDS011;45115;52.002;4.686;2023-08-31T00:33:14;6.68;;;3.28;;
59336;SDS011;45115;52.002;4.686;2023-08-31T00:35:41;6.13;;;3.00;;
59336;SDS011;45115;52.002;4.686;2023-08-31T00:38:10;5.50;;;3.03;;
59336;SDS011;45115;52.002;4.686;2023-08-31T00:40:40;5.05;;;3.30;;
59336;SDS011;45115;52.002;4.686;2023-08-31T00:43:10;5.30;;;3.03;;
59336;SDS011;45115;52.002;4.686;2023-08-31T00:45:38;4.55;;;2.92;;
59336;SDS011;45115;52.002;4.686;2023-08-31T00:48:07;4.88;;;2.47;;
59336;SDS011;45115;52.002;4.686;2023-08-31T00:50:34;7.13;;;2.60;;
59336;SDS011;45115;52.002;4.686;2023-08-31T00:53:02;5.05;;;3.10;;
59336;SDS011;45115;52.002;4.686;2023-08-31T00:55:31;7.20;;;2.70;;
59336;SDS011;45115;52.002;4.686;2023-08-31T00:57:58;5.43;;;2.90;;
59336;SDS011;45115;52.002;4.686;2023-08-31T01:00:26;4.32;;;2.72;;
59336;SDS011;45115;52.002;4.686;2023-08-31T01:03:01;4.63;;;2.45;;
59336;SDS011;45115;52.002;4.686;2023-08-31T01:05:39;4.20;;;2.75;;
59336;SDS011;45115;52.002;4.686;2023-08-31T01:08:15;3.95;;;2.55;;
59336;SDS011;45115;52.002;4.686;2023-08-31T01:10:53;5.10;;;2.90;;
59336;SDS011;45115;52.002;4.686;2023-08-31T01:13:28;6.28;;;2.67;;
59336;SDS011;45115;52.002;4.686;2023-08-31T01:15:59;5.63;;;3.00;;
59336;SDS011;45115;52.002;4.686;2023-08-31T01:18:29;5.25;;;2.80;;
59336;SDS011;45115;52.002;4.686;2023-08-31T01:21:00;4.43;;;2.70;;
59336;SDS011;45115;52.002;4.686;2023-08-31T01:23:40;3.95;;;2.53;;
59336;SDS011;45115;52.002;4.686;2023-08-31T01:26:11;5.28;;;3.20;;
59336;SDS011;45115;52.002;4.686;2023-08-31T01:28:38;6.10;;;2.92;;
59336;SDS011;45115;52.002;4.686;2023-08-31T01:31:05;3.88;;;2.50;;
59336;SDS011;45115;52.002;4.686;2023-08-31T01:33:32;5.40;;;3.38;;
59336;SDS011;45115;52.002;4.686;2023-08-31T01:36:00;5.80;;;3.20;;
59336;SDS011;45115;52.002;4.686;2023-08-31T01:38:34;6.25;;;3.63;;
59336;SDS011;45115;52.002;4.686;2023-08-31T01:41:05;12.13;;;3.53;;
59336;SDS011;45115;52.002;4.686;2023-08-31T01:43:35;5.65;;;3.20;;
59336;SDS011;45115;52.002;4.686;2023-08-31T01:46:03;6.50;;;3.17;;
59336;SDS011;45115;52.002;4.686;2023-08-31T01:48:31;6.45;;;3.10;;
59336;SDS011;45115;52.002;4.686;2023-08-31T01:51:04;5.55;;;2.90;;
59336;SDS011;45115;52.002;4.686;2023-08-31T01:53:32;4.90;;;2.58;;
59336;SDS011;45115;52.002;4.686;2023-08-31T01:55:59;5.03;;;2.60;;
59336;SDS011;45115;52.002;4.686;2023-08-31T01:58:27;7.82;;;3.10;;
59336;SDS011;45115;52.002;4.686;2023-08-31T02:00:54;2.83;;;2.05;;
59336;SDS011;45115;52.002;4.686;2023-08-31T02:03:21;6.15;;;3.05;;
59336;SDS011;45115;52.002;4.686;2023-08-31T02:05:48;2.95;;;2.25;;
59336;SDS011;45115;52.002;4.686;2023-08-31T02:08:15;4.25;;;2.10;;
59336;SDS011;45115;52.002;4.686;2023-08-31T02:10:43;3.60;;;2.42;;
59336;SDS011;45115;52.002;4.686;2023-08-31T02:13:10;3.70;;;2.55;;
59336;SDS011;45115;52.002;4.686;2023-08-31T02:15:38;6.63;;;2.80;;
59336;SDS011;45115;52.002;4.686;2023-08-31T02:18:06;2.67;;;2.35;;
59336;SDS011;45115;52.002;4.686;2023-08-31T02:20:33;4.63;;;2.67;;
59336;SDS011;45115;52.002;4.686;2023-08-31T02:23:01;4.63;;;3.10;;
59336;SDS011;45115;52.002;4.686;2023-08-31T02:25:28;8.27;;;3.08;;
59336;SDS011;45115;52.002;4.686;2023-08-31T02:27:55;4.50;;;3.45;;
59336;SDS011;45115;52.002;4.686;2023-08-31T02:30:22;4.40;;;3.53;;
59336;SDS011;45115;52.002;4.686;2023-08-31T02:32:50;5.78;;;3.38;;
59336;SDS011;45115;52.002;4.686;2023-08-31T02:35:16;5.28;;;3.30;;
59336;SDS011;45115;52.002;4.686;2023-08-31T02:37:43;6.65;;;3.80;;
59336;SDS011;45115;52.002;4.686;2023-08-31T02:40:10;6.53;;;3.60;;
59336;SDS011;45115;52.002;4.686;2023-08-31T02:42:37;9.35;;;4.00;;
59336;SDS011;45115;52.002;4.686;2023-08-31T02:45:04;6.47;;;3.60;;
59336;SDS011;45115;52.002;4.686;2023-08-31T02:47:32;8.45;;;4.15;;
59336;SDS011;45115;52.002;4.686;2023-08-31T02:50:00;6.45;;;4.22;;
59336;SDS011;45115;52.002;4.686;2023-08-31T02:52:26;9.60;;;4.32;;
59336;SDS011;45115;52.002;4.686;2023-08-31T02:54:53;8.57;;;4.32;;
59336;SDS011;45115;52.002;4.686;2023-08-31T02:57:20;8.05;;;4.40;;
59336;SDS011;45115;52.002;4.686;2023-08-31T02:59:49;10.75;;;4.85;;
59336;SDS011;45115;52.002;4.686;2023-08-31T03:02:16;8.07;;;4.63;;
59336;SDS011;45115;52.002;4.686;2023-08-31T03:04:43;8.90;;;4.68;;
59336;SDS011;45115;52.002;4.686;2023-08-31T03:07:11;9.10;;;4.80;;
59336;SDS011;45115;52.002;4.686;2023-08-31T03:09:40;7.97;;;4.90;;
59336;SDS011;45115;52.002;4.686;2023-08-31T03:12:07;7.97;;;4.90;;
59336;SDS011;45115;52.002;4.686;2023-08-31T03:14:34;8.73;;;4.82;;
59336;SDS011;45115;52.002;4.686;2023-08-31T03:17:01;8.23;;;4.47;;
59336;SDS011;45115;52.002;4.686;2023-08-31T03:19:28;9.77;;;4.38;;
59336;SDS011;45115;52.002;4.686;2023-08-31T03:21:55;8.20;;;4.13;;
59336;SDS011;45115;52.002;4.686;2023-08-31T03:24:23;9.38;;;4.18;;
59336;SDS011;45115;52.002;4.686;2023-08-31T03:26:49;10.95;;;4.22;;
59336;SDS011;45115;52.002;4.686;2023-08-31T03:29:17;8.38;;;4.30;;
59336;SDS011;45115;52.002;4.686;2023-08-31T03:31:43;8.40;;;4.30;;
59336;SDS011;45115;52.002;4.686;2023-08-31T03:34:10;8.48;;;4.78;;
59336;SDS011;45115;52.002;4.686;2023-08-31T03:36:37;8.70;;;3.95;;
59336;SDS011;45115;52.002;4.686;2023-08-31T03:39:03;8.77;;;3.92;;
59336;SDS011;45115;52.002;4.686;2023-08-31T03:41:32;5.55;;;3.60;;
59336;SDS011;45115;52.002;4.686;2023-08-31T03:44:00;6.20;;;3.67;;
59336;SDS011;45115;52.002;4.686;2023-08-31T03:46:27;6.38;;;3.90;;
59336;SDS011;45115;52.002;4.686;2023-08-31T03:48:54;9.48;;;4.13;;
59336;SDS011;45115;52.002;4.686;2023-08-31T03:51:21;8.80;;;4.05;;
59336;SDS011;45115;52.002;4.686;2023-08-31T03:53:47;8.40;;;3.90;;
59336;SDS011;45115;52.002;4.686;2023-08-31T03:56:14;6.93;;;4.13;;
59336;SDS011;45115;52.002;4.686;2023-08-31T03:58:43;8.15;;;3.90;;
59336;SDS011;45115;52.002;4.686;2023-08-31T04:01:09;9.02;;;3.75;;
59336;SDS011;45115;52.002;4.686;2023-08-31T04:03:38;7.05;;;3.63;;
59336;SDS011;45115;52.002;4.686;2023-08-31T04:06:04;8.65;;;3.78;;
59336;SDS011;45115;52.002;4.686;2023-08-31T04:08:31;9.50;;;3.95;;
59336;SDS011;45115;52.002;4.686;2023-08-31T04:10:58;7.05;;;3.30;;
59336;SDS011;45115;52.002;4.686;2023-08-31T04:13:25;5.47;;;3.30;;
59336;SDS011;45115;52.002;4.686;2023-08-31T04:15:53;7.20;;;3.45;;
59336;SDS011;45115;52.002;4.686;2023-08-31T04:18:20;5.70;;;3.53;;
59336;SDS011;45115;52.002;4.686;2023-08-31T04:20:48;7.85;;;3.53;;
59336;SDS011;45115;52.002;4.686;2023-08-31T04:23:16;6.57;;;3.38;;
59336;SDS011;45115;52.002;4.686;2023-08-31T04:25:43;4.93;;;3.38;;
59336;SDS011;45115;52.002;4.686;2023-08-31T04:28:11;7.22;;;3.30;;
59336;SDS011;45115;52.002;4.686;2023-08-31T04:30:41;7.32;;;3.05;;
59336;SDS011;45115;52.002;4.686;2023-08-31T04:33:09;6.40;;;2.97;;
59336;SDS011;45115;52.002;4.686;2023-08-31T04:35:36;5.03;;;2.97;;
59336;SDS011;45115;52.002;4.686;2023-08-31T04:38:03;5.32;;;2.97;;
59336;SDS011;45115;52.002;4.686;2023-08-31T04:40:30;6.85;;;2.85;;
59336;SDS011;45115;52.002;4.686;2023-08-31T04:42:57;6.68;;;3.30;;
59336;SDS011;45115;52.002;4.686;2023-08-31T04:45:24;5.45;;;2.92;;
59336;SDS011;45115;52.002;4.686;2023-08-31T04:47:51;5.18;;;3.17;;
59336;SDS011;45115;52.002;4.686;2023-08-31T04:50:19;6.13;;;2.95;;
59336;SDS011;45115;52.002;4.686;2023-08-31T04:52:46;7.68;;;3.22;;
59336;SDS011;45115;52.002;4.686;2023-08-31T04:55:13;6.35;;;2.95;;
59336;SDS011;45115;52.002;4.686;2023-08-31T04:57:39;6.70;;;3.15;;
59336;SDS011;45115;52.002;4.686;2023-08-31T05:00:07;6.30;;;3.13;;
59336;SDS011;45115;52.002;4.686;2023-08-31T05:02:35;5.20;;;3.28;;
59336;SDS011;45115;52.002;4.686;2023-08-31T05:05:02;3.53;;;2.47;;
59336;SDS011;45115;52.002;4.686;2023-08-31T05:07:30;5.85;;;2.88;;
59336;SDS011;45115;52.002;4.686;2023-08-31T05:09:57;7.53;;;3.13;;
59336;SDS011;45115;52.002;4.686;2023-08-31T05:12:24;5.25;;;2.90;;
59336;SDS011;45115;52.002;4.686;2023-08-31T05:15:02;5.75;;;2.63;;
59336;SDS011;45115;52.002;4.686;2023-08-31T05:19:59;5.00;;;2.53;;
59336;SDS011;45115;52.002;4.686;2023-08-31T05:22:25;4.80;;;2.50;;
59336;SDS011;45115;52.002;4.686;2023-08-31T05:24:54;5.32;;;2.80;;
59336;SDS011;45115;52.002;4.686;2023-08-31T05:27:21;5.93;;;2.85;;
59336;SDS011;45115;52.002;4.686;2023-08-31T05:29:47;6.57;;;2.92;;
59336;SDS011;45115;52.002;4.686;2023-08-31T05:32:14;5.85;;;3.03;;
59336;SDS011;45115;52.002;4.686;2023-08-31T05:34:41;6.50;;;3.10;;
59336;SDS011;45115;52.002;4.686;2023-08-31T05:37:07;3.22;;;2.45;;
59336;SDS011;45115;52.002;4.686;2023-08-31T05:39:34;6.22;;;3.10;;
59336;SDS011;45115;52.002;4.686;2023-08-31T05:42:02;5.35;;;3.20;;
59336;SDS011;45115;52.002;4.686;2023-08-31T05:44:29;5.45;;;2.85;;
59336;SDS011;45115;52.002;4.686;2023-08-31T05:46:56;4.47;;;2.42;;
59336;SDS011;45115;52.002;4.686;2023-08-31T05:49:22;6.03;;;2.55;;
59336;SDS011;45115;52.002;4.686;2023-08-31T05:51:49;10.82;;;3.22;;
59336;SDS011;45115;52.002;4.686;2023-08-31T05:54:17;4.82;;;2.35;;
59336;SDS011;45115;52.002;4.686;2023-08-31T05:56:43;5.68;;;2.50;;
59336;SDS011;45115;52.002;4.686;2023-08-31T05:59:11;4.43;;;2.50;;
59336;SDS011;45115;52.002;4.686;2023-08-31T06:01:38;5.05;;;2.60;;
59336;SDS011;45115;52.002;4.686;2023-08-31T06:04:04;5.88;;;2.50;;
59336;SDS011;45115;52.002;4.686;2023-08-31T06:06:31;4.20;;;2.70;;
59336;SDS011;45115;52.002;4.686;2023-08-31T06:08:58;4.22;;;2.50;;
59336;SDS011;45115;52.002;4.686;2023-08-31T06:11:25;4.15;;;2.45;;
59336;SDS011;45115;52.002;4.686;2023-08-31T06:13:52;5.10;;;3.00;;
59336;SDS011;45115;52.002;4.686;2023-08-31T06:16:20;5.15;;;2.72;;
59336;SDS011;45115;52.002;4.686;2023-08-31T06:18:46;4.10;;;2.67;;
59336;SDS011;45115;52.002;4.686;2023-08-31T06:21:13;4.05;;;2.42;;
59336;SDS011;45115;52.002;4.686;2023-08-31T06:23:40;3.58;;;2.70;;
59336;SDS011;45115;52.002;4.686;2023-08-31T06:26:06;6.13;;;2.47;;
59336;SDS011;45115;52.002;4.686;2023-08-31T06:28:33;4.03;;;2.80;;
59336;SDS011;45115;52.002;4.686;2023-08-31T06:31:00;6.80;;;2.72;;
59336;SDS011;45115;52.002;4.686;2023-08-31T06:33:28;5.80;;;3.05;;
59336;SDS011;45115;52.002;4.686;2023-08-31T06:35:54;4.50;;;2.70;;
59336;SDS011;45115;52.002;4.686;2023-08-31T06:38:21;6.57;;;2.80;;
59336;SDS011;45115;52.002;4.686;2023-08-31T06:40:48;6.63;;;2.75;;
59336;SDS011;45115;52.002;4.686;2023-08-31T06:43:15;6.30;;;2.92;;
59336;SDS011;45115;52.002;4.686;2023-08-31T06:45:41;6.20;;;2.53;;
59336;SDS011;45115;52.002;4.686;2023-08-31T06:48:08;6.15;;;2.70;;
59336;SDS011;45115;52.002;4.686;2023-08-31T06:50:36;5.25;;;2.45;;
59336;SDS011;45115;52.002;4.686;2023-08-31T06:53:03;4.95;;;2.70;;
59336;SDS011;45115;52.002;4.686;2023-08-31T06:55:30;5.68;;;2.30;;
59336;SDS011;45115;52.002;4.686;2023-08-31T06:57:59;2.80;;;2.47;;
59336;SDS011;45115;52.002;4.686;2023-08-31T07:00:25;3.50;;;2.10;;
59336;SDS011;45115;52.002;4.686;2023-08-31T07:02:52;6.78;;;2.97;;
59336;SDS011;45115;52.002;4.686;2023-08-31T07:05:19;3.03;;;2.15;;
59336;SDS011;45115;52.002;4.686;2023-08-31T07:07:53;2.17;;;1.98;;
59336;SDS011;45115;52.002;4.686;2023-08-31T07:10:20;4.55;;;2.22;;
59336;SDS011;45115;52.002;4.686;2023-08-31T07:12:47;4.00;;;2.47;;
59336;SDS011;45115;52.002;4.686;2023-08-31T07:15:14;4.57;;;2.25;;
59336;SDS011;45115;52.002;4.686;2023-08-31T07:17:40;6.22;;;2.20;;
59336;SDS011;45115;52.002;4.686;2023-08-31T07:20:07;6.05;;;1.83;;
59336;SDS011;45115;52.002;4.686;2023-08-31T07:22:36;3.15;;;1.67;;
59336;SDS011;45115;52.002;4.686;2023-08-31T07:25:05;2.35;;;1.67;;
59336;SDS011;45115;52.002;4.686;2023-08-31T07:27:33;5.07;;;1.95;;
59336;SDS011;45115;52.002;4.686;2023-08-31T07:29:59;3.40;;;1.88;;
59336;SDS011;45115;52.002;4.686;2023-08-31T07:32:28;3.85;;;1.85;;
59336;SDS011;45115;52.002;4.686;2023-08-31T07:34:54;7.00;;;1.80;;
59336;SDS011;45115;52.002;4.686;2023-08-31T07:37:21;3.13;;;1.88;;
59336;SDS011;45115;52.002;4.686;2023-08-31T07:39:48;4.32;;;1.65;;
59336;SDS011;45115;52.002;4.686;2023-08-31T07:42:16;2.95;;;1.80;;
59336;SDS011;45115;52.002;4.686;2023-08-31T07:44:42;5.05;;;1.80;;
59336;SDS011;45115;52.002;4.686;2023-08-31T07:47:09;5.00;;;1.67;;
59336;SDS011;45115;52.002;4.686;2023-08-31T07:49:36;1.58;;;1.13;;
59336;SDS011;45115;52.002;4.686;2023-08-31T07:52:03;4.35;;;1.70;;
59336;SDS011;45115;52.002;4.686;2023-08-31T07:54:30;3.10;;;1.45;;
59336;SDS011;45115;52.002;4.686;2023-08-31T07:56:56;3.70;;;1.45;;
59336;SDS011;45115;52.002;4.686;2023-08-31T07:59:24;3.13;;;1.20;;
59336;SDS011;45115;52.002;4.686;2023-08-31T08:01:52;2.25;;;1.30;;
59336;SDS011;45115;52.002;4.686;2023-08-31T08:04:18;3.03;;;1.30;;
59336;SDS011;45115;52.002;4.686;2023-08-31T08:06:45;2.88;;;1.25;;
59336;SDS011;45115;52.002;4.686;2023-08-31T08:09:12;2.40;;;1.38;;
59336;SDS011;45115;52.002;4.686;2023-08-31T08:11:38;2.83;;;1.52;;
59336;SDS011;45115;52.002;4.686;2023-08-31T08:14:05;2.97;;;1.60;;
59336;SDS011;45115;52.002;4.686;2023-08-31T08:16:33;3.90;;;1.23;;
59336;SDS011;45115;52.002;4.686;2023-08-31T08:19:01;1.05;;;0.82;;
59336;SDS011;45115;52.002;4.686;2023-08-31T08:21:28;2.35;;;1.08;;
59336;SDS011;45115;52.002;4.686;2023-08-31T08:23:55;4.20;;;1.15;;
59336;SDS011;45115;52.002;4.686;2023-08-31T08:26:22;3.95;;;1.33;;
59336;SDS011;45115;52.002;4.686;2023-08-31T08:28:48;2.75;;;1.25;;
59336;SDS011;45115;52.002;4.686;2023-08-31T08:31:15;2.38;;;1.40;;
59336;SDS011;45115;52.002;4.686;2023-08-31T08:33:43;1.35;;;1.02;;
59336;SDS011;45115;52.002;4.686;2023-08-31T08:36:10;2.70;;;1.45;;
59336;SDS011;45115;52.002;4.686;2023-08-31T08:38:38;2.92;;;1.30;;
59336;SDS011;45115;52.002;4.686;2023-08-31T08:41:04;1.83;;;1.10;;
59336;SDS011;45115;52.002;4.686;2023-08-31T08:43:32;3.85;;;1.95;;
59336;SDS011;45115;52.002;4.686;2023-08-31T08:46:00;7.07;;;3.15;;
59336;SDS011;45115;52.002;4.686;2023-08-31T08:48:32;5.35;;;2.75;;
59336;SDS011;45115;52.002;4.686;2023-08-31T08:51:02;1.33;;;1.20;;
59336;SDS011;45115;52.002;4.686;2023-08-31T08:53:30;1.23;;;1.13;;
59336;SDS011;45115;52.002;4.686;2023-08-31T08:55:56;3.10;;;1.10;;
59336;SDS011;45115;52.002;4.686;2023-08-31T08:58:23;3.47;;;1.58;;
59336;SDS011;45115;52.002;4.686;2023-08-31T09:00:50;2.08;;;1.35;;
59336;SDS011;45115;52.002;4.686;2023-08-31T09:03:18;5.82;;;1.15;;
59336;SDS011;45115;52.002;4.686;2023-08-31T09:05:45;4.90;;;1.60;;
59336;SDS011;45115;52.002;4.686;2023-08-31T09:08:13;3.28;;;1.20;;
59336;SDS011;45115;52.002;4.686;2023-08-31T09:10:41;4.00;;;1.38;;
59336;SDS011;45115;52.002;4.686;2023-08-31T09:13:09;3.83;;;1.15;;
59336;SDS011;45115;52.002;4.686;2023-08-31T09:15:41;4.57;;;1.65;;
59336;SDS011;45115;52.002;4.686;2023-08-31T09:18:16;2.47;;;1.25;;
59336;SDS011;45115;52.002;4.686;2023-08-31T09:20:43;4.43;;;1.50;;
59336;SDS011;45115;52.002;4.686;2023-08-31T09:23:12;5.00;;;1.48;;
59336;SDS011;45115;52.002;4.686;2023-08-31T09:25:42;2.55;;;1.23;;
59336;SDS011;45115;52.002;4.686;2023-08-31T09:28:10;3.08;;;1.33;;
59336;SDS011;45115;52.002;4.686;2023-08-31T09:30:38;3.92;;;1.58;;
59336;SDS011;45115;52.002;4.686;2023-08-31T09:33:06;2.58;;;1.20;;
59336;SDS011;45115;52.002;4.686;2023-08-31T09:35:34;2.45;;;1.25;;
59336;SDS011;45115;52.002;4.686;2023-08-31T09:38:06;2.28;;;0.98;;
59336;SDS011;45115;52.002;4.686;2023-08-31T09:40:35;3.25;;;1.42;;
59336;SDS011;45115;52.002;4.686;2023-08-31T09:43:02;5.45;;;1.77;;
59336;SDS011;45115;52.002;4.686;2023-08-31T09:45:30;5.80;;;1.92;;
59336;SDS011;45115;52.002;4.686;2023-08-31T09:47:58;4.65;;;1.30;;
59336;SDS011;45115;52.002;4.686;2023-08-31T09:50:25;3.55;;;1.45;;
59336;SDS011;45115;52.002;4.686;2023-08-31T09:52:55;5.53;;;1.67;;
59336;SDS011;45115;52.002;4.686;2023-08-31T09:55:23;3.13;;;1.35;;
59336;SDS011;45115;52.002;4.686;2023-08-31T09:57:56;1.73;;;1.08;;
59336;SDS011;45115;52.002;4.686;2023-08-31T10:00:24;4.25;;;1.40;;
59336;SDS011;45115;52.002;4.686;2023-08-31T10:02:52;3.67;;;1.30;;
59336;SDS011;45115;52.002;4.686;2023-08-31T10:05:20;1.98;;;1.30;;
59336;SDS011;45115;52.002;4.686;2023-08-31T10:07:48;3.55;;;1.52;;
59336;SDS011;45115;52.002;4.686;2023-08-31T10:10:15;4.35;;;1.40;;
59336;SDS011;45115;52.002;4.686;2023-08-31T10:12:42;1.63;;;1.23;;
59336;SDS011;45115;52.002;4.686;2023-08-31T10:15:13;2.95;;;1.23;;
59336;SDS011;45115;52.002;4.686;2023-08-31T10:17:41;4.47;;;1.50;;
59336;SDS011;45115;52.002;4.686;2023-08-31T10:20:09;1.95;;;1.30;;
59336;SDS011;45115;52.002;4.686;2023-08-31T10:22:37;2.90;;;1.50;;
59336;SDS011;45115;52.002;4.686;2023-08-31T10:25:05;4.05;;;1.58;;
59336;SDS011;45115;52.002;4.686;2023-08-31T10:27:36;2.05;;;1.55;;
59336;SDS011;45115;52.002;4.686;2023-08-31T10:30:25;2.58;;;1.85;;
59336;SDS011;45115;52.002;4.686;2023-08-31T10:35:51;4.95;;;1.35;;
59336;SDS011;45115;52.002;4.686;2023-08-31T10:38:26;1.42;;;1.33;;
59336;SDS011;45115;52.002;4.686;2023-08-31T10:41:02;2.35;;;1.20;;
59336;SDS011;45115;52.002;4.686;2023-08-31T10:43:46;3.45;;;1.35;;
59336;SDS011;45115;52.002;4.686;2023-08-31T10:46:17;2.72;;;2.17;;
59336;SDS011;45115;52.002;4.686;2023-08-31T10:48:51;1.10;;;1.10;;
59336;SDS011;45115;52.002;4.686;2023-08-31T10:51:18;2.35;;;1.60;;
59336;SDS011;45115;52.002;4.686;2023-08-31T10:53:48;3.40;;;1.20;;
59336;SDS011;45115;52.002;4.686;2023-08-31T10:56:15;2.55;;;1.60;;
59336;SDS011;45115;52.002;4.686;2023-08-31T10:58:43;5.07;;;1.80;;
59336;SDS011;45115;52.002;4.686;2023-08-31T11:04:21;2.65;;;1.40;;
59336;SDS011;45115;52.002;4.686;2023-08-31T11:12:08;2.75;;;1.38;;
59336;SDS011;45115;52.002;4.686;2023-08-31T11:14:35;3.00;;;1.60;;
59336;SDS011;45115;52.002;4.686;2023-08-31T11:17:03;2.15;;;1.30;;
59336;SDS011;45115;52.002;4.686;2023-08-31T11:19:31;2.75;;;1.25;;
59336;SDS011;45115;52.002;4.686;2023-08-31T11:21:59;3.03;;;1.27;;
59336;SDS011;45115;52.002;4.686;2023-08-31T11:24:28;2.72;;;1.35;;
59336;SDS011;45115;52.002;4.686;2023-08-31T11:26:55;2.78;;;1.40;;
59336;SDS011;45115;52.002;4.686;2023-08-31T11:29:22;2.95;;;1.63;;
59336;SDS011;45115;52.002;4.686;2023-08-31T11:31:48;3.17;;;1.40;;
59336;SDS011;45115;52.002;4.686;2023-08-31T11:34:17;3.15;;;1.60;;
59336;SDS011;45115;52.002;4.686;2023-08-31T11:36:45;3.40;;;1.30;;
59336;SDS011;45115;52.002;4.686;2023-08-31T11:39:13;4.05;;;1.45;;
59336;SDS011;45115;52.002;4.686;2023-08-31T11:41:40;3.42;;;1.80;;
59336;SDS011;45115;52.002;4.686;2023-08-31T11:44:08;1.73;;;1.35;;
59336;SDS011;45115;52.002;4.686;2023-08-31T11:46:36;4.07;;;1.60;;
59336;SDS011;45115;52.002;4.686;2023-08-31T11:49:03;5.50;;;1.50;;
59336;SDS011;45115;52.002;4.686;2023-08-31T11:51:32;4.30;;;1.50;;
59336;SDS011;45115;52.002;4.686;2023-08-31T11:54:00;2.65;;;1.75;;
59336;SDS011;45115;52.002;4.686;2023-08-31T11:56:28;2.05;;;1.30;;
59336;SDS011;45115;52.002;4.686;2023-08-31T11:59:06;2.03;;;1.40;;
59336;SDS011;45115;52.002;4.686;2023-08-31T12:01:37;2.13;;;1.52;;
59336;SDS011;45115;52.002;4.686;2023-08-31T12:06:37;2.58;;;1.30;;
59336;SDS011;45115;52.002;4.686;2023-08-31T12:09:06;2.85;;;1.73;;
59336;SDS011;45115;52.002;4.686;2023-08-31T12:11:34;13.98;;;8.00;;
59336;SDS011;45115;52.002;4.686;2023-08-31T12:14:01;2.80;;;1.30;;
59336;SDS011;45115;52.002;4.686;2023-08-31T12:16:33;2.00;;;1.75;;
59336;SDS011;45115;52.002;4.686;2023-08-31T12:19:05;5.05;;;2.13;;
59336;SDS011;45115;52.002;4.686;2023-08-31T12:24:00;4.40;;;1.50;;
59336;SDS011;45115;52.002;4.686;2023-08-31T12:26:28;4.80;;;1.33;;
59336;SDS011;45115;52.002;4.686;2023-08-31T12:28:57;4.10;;;2.03;;
59336;SDS011;45115;52.002;4.686;2023-08-31T12:31:24;2.33;;;1.58;;
59336;SDS011;45115;52.002;4.686;2023-08-31T12:33:51;5.20;;;1.52;;
59336;SDS011;45115;52.002;4.686;2023-08-31T12:36:17;2.70;;;1.83;;
59336;SDS011;45115;52.002;4.686;2023-08-31T12:38:44;3.92;;;1.42;;
59336;SDS011;45115;52.002;4.686;2023-08-31T12:41:12;2.33;;;1.30;;
59336;SDS011;45115;52.002;4.686;2023-08-31T12:43:39;6.03;;;2.00;;
59336;SDS011;45115;52.002;4.686;2023-08-31T12:46:05;1.88;;;1.50;;
59336;SDS011;45115;52.002;4.686;2023-08-31T12:48:34;1.75;;;1.40;;
59336;SDS011;45115;52.002;4.686;2023-08-31T12:51:01;5.80;;;1.60;;
59336;SDS011;45115;52.002;4.686;2023-08-31T12:53:28;4.22;;;1.88;;
59336;SDS011;45115;52.002;4.686;2023-08-31T12:55:54;4.07;;;1.50;;
59336;SDS011;45115;52.002;4.686;2023-08-31T12:58:22;2.58;;;1.40;;
59336;SDS011;45115;52.002;4.686;2023-08-31T13:00:49;3.63;;;1.50;;
59336;SDS011;45115;52.002;4.686;2023-08-31T13:03:18;3.10;;;1.45;;
59336;SDS011;45115;52.002;4.686;2023-08-31T13:05:46;2.38;;;1.63;;
59336;SDS011;45115;52.002;4.686;2023-08-31T13:08:12;2.85;;;1.40;;
59336;SDS011;45115;52.002;4.686;2023-08-31T13:10:39;3.85;;;1.75;;
59336;SDS011;45115;52.002;4.686;2023-08-31T13:13:06;2.38;;;1.50;;
59336;SDS011;45115;52.002;4.686;2023-08-31T13:15:34;5.20;;;1.60;;
59336;SDS011;45115;52.002;4.686;2023-08-31T13:18:01;3.22;;;1.45;;
59336;SDS011;45115;52.002;4.686;2023-08-31T13:20:28;6.65;;;1.63;;
59336;SDS011;45115;52.002;4.686;2023-08-31T13:22:55;3.40;;;1.50;;
59336;SDS011;45115;52.002;4.686;2023-08-31T13:25:22;2.70;;;1.60;;
59336;SDS011;45115;52.002;4.686;2023-08-31T13:27:48;1.98;;;1.30;;
59336;SDS011;45115;52.002;4.686;2023-08-31T13:30:15;3.47;;;1.58;;
59336;SDS011;45115;52.002;4.686;2023-08-31T13:32:43;4.05;;;1.73;;
59336;SDS011;45115;52.002;4.686;2023-08-31T13:35:10;3.92;;;2.00;;
59336;SDS011;45115;52.002;4.686;2023-08-31T13:37:37;2.75;;;1.63;;
59336;SDS011;45115;52.002;4.686;2023-08-31T13:40:05;2.83;;;1.45;;
59336;SDS011;45115;52.002;4.686;2023-08-31T13:42:33;3.53;;;1.30;;
59336;SDS011;45115;52.002;4.686;2023-08-31T13:45:04;5.78;;;1.70;;
59336;SDS011;45115;52.002;4.686;2023-08-31T13:47:32;3.55;;;1.60;;
59336;SDS011;45115;52.002;4.686;2023-08-31T13:50:00;2.40;;;1.63;;
59336;SDS011;45115;52.002;4.686;2023-08-31T13:52:29;2.33;;;1.35;;
59336;SDS011;45115;52.002;4.686;2023-08-31T13:54:55;4.65;;;1.55;;
59336;SDS011;45115;52.002;4.686;2023-08-31T13:57:22;4.95;;;1.65;;
59336;SDS011;45115;52.002;4.686;2023-08-31T13:59:49;2.92;;;1.30;;
59336;SDS011;45115;52.002;4.686;2023-08-31T14:02:15;5.60;;;1.58;;
59336;SDS011;45115;52.002;4.686;2023-08-31T14:04:42;4.28;;;1.45;;
59336;SDS011;45115;52.002;4.686;2023-08-31T14:07:10;2.95;;;1.30;;
59336;SDS011;45115;52.002;4.686;2023-08-31T14:09:37;2.75;;;1.55;;
59336;SDS011;45115;52.002;4.686;2023-08-31T14:12:04;3.72;;;1.50;;
59336;SDS011;45115;52.002;4.686;2023-08-31T14:14:31;2.38;;;1.50;;
59336;SDS011;45115;52.002;4.686;2023-08-31T14:16:58;3.65;;;1.42;;
59336;SDS011;45115;52.002;4.686;2023-08-31T14:19:24;3.13;;;1.73;;
59336;SDS011;45115;52.002;4.686;2023-08-31T14:21:51;2.65;;;1.90;;
59336;SDS011;45115;52.002;4.686;2023-08-31T14:24:20;4.78;;;1.80;;
59336;SDS011;45115;52.002;4.686;2023-08-31T14:26:46;5.55;;;1.80;;
59336;SDS011;45115;52.002;4.686;2023-08-31T14:29:13;5.07;;;1.60;;
59336;SDS011;45115;52.002;4.686;2023-08-31T14:31:40;3.00;;;1.60;;
59336;SDS011;45115;52.002;4.686;2023-08-31T14:34:07;2.70;;;1.45;;
59336;SDS011;45115;52.002;4.686;2023-08-31T14:36:33;3.30;;;1.52;;
59336;SDS011;45115;52.002;4.686;2023-08-31T14:39:01;3.20;;;1.60;;
59336;SDS011;45115;52.002;4.686;2023-08-31T14:41:31;4.38;;;2.40;;
59336;SDS011;45115;52.002;4.686;2023-08-31T14:43:57;7.00;;;2.03;;
59336;SDS011;45115;52.002;4.686;2023-08-31T14:46:24;3.40;;;1.80;;
59336;SDS011;45115;52.002;4.686;2023-08-31T14:48:51;5.78;;;2.05;;
59336;SDS011;45115;52.002;4.686;2023-08-31T14:51:17;4.65;;;1.90;;
59336;SDS011;45115;52.002;4.686;2023-08-31T14:53:44;3.55;;;1.80;;
59336;SDS011;45115;52.002;4.686;2023-08-31T14:56:11;2.95;;;1.70;;
59336;SDS011;45115;52.002;4.686;2023-08-31T14:58:39;4.05;;;1.90;;
59336;SDS011;45115;52.002;4.686;2023-08-31T15:01:05;3.90;;;1.90;;
59336;SDS011;45115;52.002;4.686;2023-08-31T15:03:33;3.47;;;1.90;;
59336;SDS011;45115;52.002;4.686;2023-08-31T15:05:59;2.72;;;1.63;;
59336;SDS011;45115;52.002;4.686;2023-08-31T15:08:34;6.22;;;1.80;;
59336;SDS011;45115;52.002;4.686;2023-08-31T15:11:02;3.95;;;2.08;;